sensor_id;sensor_type;location;lat;lon;timestamp;temperature;humidity
20728;DHT22;10525;50.154;8.198;2022-10-16T00:01:45;13.00;99.90
20728;DHT22;10525;50.154;8.198;2022-10-16T00:04:12;13.00;99.90
20728;DHT22;10525;50.154;8.198;2022-10-16T00:06:39;13.00;99.90
20728;DHT22;10525;50.154;8.198;2022-10-16T00:09:06;13.00;99.90
20728;DHT22;10525;50.154;8.198;2022-10-16T00:11:37;13.10;99.90
20728;DHT22;10525;50.154;8.198;2022-10-16T00:14:05;13.00;99.90
20728;DHT22;10525;50.154;8.198;2022-10-16T00:16:33;13.10;99.90
20728;DHT22;10525;50.154;8.198;2022-10-16T00:19:00;13.00;99.90
20728;DHT22;10525;50.154;8.198;2022-10-16T00:21:28;13.10;99.90
20728;DHT22;10525;50.154;8.198;2022-10-16T00:23:57;13.10;99.90
20728;DHT22;10525;50.154;8.198;2022-10-16T00:26:26;13.10;99.90
20728;DHT22;10525;50.154;8.198;2022-10-16T00:28:54;13.20;99.90
20728;DHT22;10525;50.154;8.198;2022-10-16T00:31:22;13.10;99.90
20728;DHT22;10525;50.154;8.198;2022-10-16T00:33:49;13.20;99.90
20728;DHT22;10525;50.154;8.198;2022-10-16T00:36:18;13.20;99.90
20728;DHT22;10525;50.154;8.198;2022-10-16T00:38:45;13.20;99.90
20728;DHT22;10525;50.154;8.198;2022-10-16T00:41:14;13.20;99.90
20728;DHT22;10525;50.154;8.198;2022-10-16T00:43:43;13.20;99.90
20728;DHT22;10525;50.154;8.198;2022-10-16T00:46:17;13.30;99.90
20728;DHT22;10525;50.154;8.198;2022-10-16T00:48:48;13.30;99.90
20728;DHT22;10525;50.154;8.198;2022-10-16T00:51:15;13.30;99.90
20728;DHT22;10525;50.154;8.198;2022-10-16T00:53:44;13.30;99.90
20728;DHT22;10525;50.154;8.198;2022-10-16T00:56:11;13.30;99.90
20728;DHT22;10525;50.154;8.198;2022-10-16T00:58:38;13.30;99.90
20728;DHT22;10525;50.154;8.198;2022-10-16T01:01:05;13.40;99.90
20728;DHT22;10525;50.154;8.198;2022-10-16T01:03:34;13.40;99.90
20728;DHT22;10525;50.154;8.198;2022-10-16T01:06:09;13.40;99.90
20728;DHT22;10525;50.154;8.198;2022-10-16T01:08:46;13.50;99.90
20728;DHT22;10525;50.154;8.198;2022-10-16T01:11:20;13.50;99.90
20728;DHT22;10525;50.154;8.198;2022-10-16T01:13:51;13.50;99.90
20728;DHT22;10525;50.154;8.198;2022-10-16T01:16:28;13.40;99.90
20728;DHT22;10525;50.154;8.198;2022-10-16T01:19:04;13.50;99.90
20728;DHT22;10525;50.154;8.198;2022-10-16T01:21:37;13.50;99.90
20728;DHT22;10525;50.154;8.198;2022-10-16T01:24:12;13.60;99.90
20728;DHT22;10525;50.154;8.198;2022-10-16T01:27:00;13.60;99.90
20728;DHT22;10525;50.154;8.198;2022-10-16T01:29:31;13.60;99.90
20728;DHT22;10525;50.154;8.198;2022-10-16T01:32:07;13.60;99.90
20728;DHT22;10525;50.154;8.198;2022-10-16T01:34:41;13.60;99.90
20728;DHT22;10525;50.154;8.198;2022-10-16T01:37:12;13.60;99.90
20728;DHT22;10525;50.154;8.198;2022-10-16T01:39:42;13.60;99.90
20728;DHT22;10525;50.154;8.198;2022-10-16T01:42:14;13.60;99.90
20728;DHT22;10525;50.154;8.198;2022-10-16T01:44:43;13.60;99.90
20728;DHT22;10525;50.154;8.198;2022-10-16T01:47:13;13.50;99.90
20728;DHT22;10525;50.154;8.198;2022-10-16T01:49:41;13.60;99.90
20728;DHT22;10525;50.154;8.198;2022-10-16T01:52:11;13.50;99.90
20728;DHT22;10525;50.154;8.198;2022-10-16T01:54:41;13.50;99.90
20728;DHT22;10525;50.154;8.198;2022-10-16T01:57:08;13.40;99.90
20728;DHT22;10525;50.154;8.198;2022-10-16T01:59:43;13.50;99.90
20728;DHT22;10525;50.154;8.198;2022-10-16T02:02:11;13.50;99.90
20728;DHT22;10525;50.154;8.198;2022-10-16T02:04:42;13.60;99.90
20728;DHT22;10525;50.154;8.198;2022-10-16T02:07:10;13.60;99.90
20728;DHT22;10525;50.154;8.198;2022-10-16T02:09:37;13.60;99.90
20728;DHT22;10525;50.154;8.198;2022-10-16T02:12:08;13.60;99.90
20728;DHT22;10525;50.154;8.198;2022-10-16T02:14:39;13.60;99.90
20728;DHT22;10525;50.154;8.198;2022-10-16T02:17:11;13.60;99.90
20728;DHT22;10525;50.154;8.198;2022-10-16T02:19:38;13.60;99.90
20728;DHT22;10525;50.154;8.198;2022-10-16T02:22:08;13.70;99.90
20728;DHT22;10525;50.154;8.198;2022-10-16T02:24:39;13.70;99.90
20728;DHT22;10525;50.154;8.198;2022-10-16T02:27:11;13.70;99.90
20728;DHT22;10525;50.154;8.198;2022-10-16T02:29:43;13.70;99.90
20728;DHT22;10525;50.154;8.198;2022-10-16T02:32:16;13.70;99.90
20728;DHT22;10525;50.154;8.198;2022-10-16T02:34:44;13.70;99.90
20728;DHT22;10525;50.154;8.198;2022-10-16T02:37:12;13.70;99.90
20728;DHT22;10525;50.154;8.198;2022-10-16T02:39:40;13.70;99.90
20728;DHT22;10525;50.154;8.198;2022-10-16T02:42:10;13.70;99.90
20728;DHT22;10525;50.154;8.198;2022-10-16T02:44:37;13.70;99.90
20728;DHT22;10525;50.154;8.198;2022-10-16T02:47:05;13.70;99.90
20728;DHT22;10525;50.154;8.198;2022-10-16T02:49:31;13.60;99.90
20728;DHT22;10525;50.154;8.198;2022-10-16T02:51:58;13.70;99.90
20728;DHT22;10525;50.154;8.198;2022-10-16T02:54:25;13.70;99.90
20728;DHT22;10525;50.154;8.198;2022-10-16T02:56:51;13.60;99.90
20728;DHT22;10525;50.154;8.198;2022-10-16T02:59:18;13.60;99.90
20728;DHT22;10525;50.154;8.198;2022-10-16T03:01:45;13.60;99.90
20728;DHT22;10525;50.154;8.198;2022-10-16T03:04:13;13.60;99.90
20728;DHT22;10525;50.154;8.198;2022-10-16T03:06:40;13.50;99.90
20728;DHT22;10525;50.154;8.198;2022-10-16T03:09:07;13.40;99.90
20728;DHT22;10525;50.154;8.198;2022-10-16T03:11:33;13.40;99.90
20728;DHT22;10525;50.154;8.198;2022-10-16T03:14:00;13.40;99.90
20728;DHT22;10525;50.154;8.198;2022-10-16T03:16:27;13.30;99.90
20728;DHT22;10525;50.154;8.198;2022-10-16T03:18:53;13.30;99.90
20728;DHT22;10525;50.154;8.198;2022-10-16T03:21:21;13.30;99.90
20728;DHT22;10525;50.154;8.198;2022-10-16T03:23:48;13.30;99.90
20728;DHT22;10525;50.154;8.198;2022-10-16T03:26:15;13.30;99.90
20728;DHT22;10525;50.154;8.198;2022-10-16T03:28:41;13.40;99.90
20728;DHT22;10525;50.154;8.198;2022-10-16T03:31:08;13.40;99.90
20728;DHT22;10525;50.154;8.198;2022-10-16T03:33:35;13.40;99.90
20728;DHT22;10525;50.154;8.198;2022-10-16T03:36:02;13.40;99.90
20728;DHT22;10525;50.154;8.198;2022-10-16T03:38:30;13.40;99.90
20728;DHT22;10525;50.154;8.198;2022-10-16T03:40:56;13.40;99.90
20728;DHT22;10525;50.154;8.198;2022-10-16T03:43:23;13.40;99.90
20728;DHT22;10525;50.154;8.198;2022-10-16T03:45:50;13.40;99.90
20728;DHT22;10525;50.154;8.198;2022-10-16T03:48:17;13.40;99.90
20728;DHT22;10525;50.154;8.198;2022-10-16T03:50:44;13.40;99.90
20728;DHT22;10525;50.154;8.198;2022-10-16T03:53:11;13.40;99.90
20728;DHT22;10525;50.154;8.198;2022-10-16T03:55:41;13.40;99.90
20728;DHT22;10525;50.154;8.198;2022-10-16T03:58:08;13.40;99.90
20728;DHT22;10525;50.154;8.198;2022-10-16T04:00:34;13.30;99.90
20728;DHT22;10525;50.154;8.198;2022-10-16T04:03:01;13.40;99.90
20728;DHT22;10525;50.154;8.198;2022-10-16T04:05:28;13.40;99.90
20728;DHT22;10525;50.154;8.198;2022-10-16T04:07:54;13.30;99.90
20728;DHT22;10525;50.154;8.198;2022-10-16T04:10:21;13.40;99.90
20728;DHT22;10525;50.154;8.198;2022-10-16T04:12:49;13.40;99.90
20728;DHT22;10525;50.154;8.198;2022-10-16T04:15:16;13.40;99.90
20728;DHT22;10525;50.154;8.198;2022-10-16T04:17:42;13.30;99.90
20728;DHT22;10525;50.154;8.198;2022-10-16T04:20:09;13.30;99.90
20728;DHT22;10525;50.154;8.198;2022-10-16T04:22:36;13.30;99.90
20728;DHT22;10525;50.154;8.198;2022-10-16T04:25:03;13.30;99.90
20728;DHT22;10525;50.154;8.198;2022-10-16T04:27:30;13.30;99.90
20728;DHT22;10525;50.154;8.198;2022-10-16T04:29:58;13.30;99.90
20728;DHT22;10525;50.154;8.198;2022-10-16T04:32:25;13.30;99.90
20728;DHT22;10525;50.154;8.198;2022-10-16T04:34:52;13.30;99.90
20728;DHT22;10525;50.154;8.198;2022-10-16T04:37:18;13.40;99.90
20728;DHT22;10525;50.154;8.198;2022-10-16T04:39:45;13.40;99.90
20728;DHT22;10525;50.154;8.198;2022-10-16T04:42:12;13.40;99.90
20728;DHT22;10525;50.154;8.198;2022-10-16T04:44:38;13.40;99.90
20728;DHT22;10525;50.154;8.198;2022-10-16T04:47:06;13.40;99.90
20728;DHT22;10525;50.154;8.198;2022-10-16T04:49:33;13.50;99.90
20728;DHT22;10525;50.154;8.198;2022-10-16T04:52:00;13.50;99.90
20728;DHT22;10525;50.154;8.198;2022-10-16T04:54:26;13.40;99.90
20728;DHT22;10525;50.154;8.198;2022-10-16T04:56:53;13.40;99.90
20728;DHT22;10525;50.154;8.198;2022-10-16T04:59:21;13.40;99.90
20728;DHT22;10525;50.154;8.198;2022-10-16T05:01:47;13.50;99.90
20728;DHT22;10525;50.154;8.198;2022-10-16T05:04:16;13.50;99.90
20728;DHT22;10525;50.154;8.198;2022-10-16T05:06:43;13.40;99.90
20728;DHT22;10525;50.154;8.198;2022-10-16T05:09:10;13.50;99.90
20728;DHT22;10525;50.154;8.198;2022-10-16T05:11:36;13.40;99.90
20728;DHT22;10525;50.154;8.198;2022-10-16T05:14:03;13.40;99.90
20728;DHT22;10525;50.154;8.198;2022-10-16T05:16:30;13.40;99.90
20728;DHT22;10525;50.154;8.198;2022-10-16T05:18:56;13.40;99.90
20728;DHT22;10525;50.154;8.198;2022-10-16T05:21:24;13.40;99.90
20728;DHT22;10525;50.154;8.198;2022-10-16T05:23:53;13.40;99.90
20728;DHT22;10525;50.154;8.198;2022-10-16T05:26:20;13.40;99.90
20728;DHT22;10525;50.154;8.198;2022-10-16T05:28:49;13.40;99.90
20728;DHT22;10525;50.154;8.198;2022-10-16T05:31:16;13.40;99.90
20728;DHT22;10525;50.154;8.198;2022-10-16T05:33:43;13.40;99.90
20728;DHT22;10525;50.154;8.198;2022-10-16T05:36:10;13.40;99.90
20728;DHT22;10525;50.154;8.198;2022-10-16T05:38:39;13.50;99.90
20728;DHT22;10525;50.154;8.198;2022-10-16T05:41:06;13.50;99.90
20728;DHT22;10525;50.154;8.198;2022-10-16T05:43:33;13.50;99.90
20728;DHT22;10525;50.154;8.198;2022-10-16T05:46:01;13.50;99.90
20728;DHT22;10525;50.154;8.198;2022-10-16T05:48:28;13.60;99.90
20728;DHT22;10525;50.154;8.198;2022-10-16T05:50:59;13.60;99.90
20728;DHT22;10525;50.154;8.198;2022-10-16T05:53:27;13.70;99.90
20728;DHT22;10525;50.154;8.198;2022-10-16T05:55:55;13.70;99.90
20728;DHT22;10525;50.154;8.198;2022-10-16T05:58:23;13.70;99.90
20728;DHT22;10525;50.154;8.198;2022-10-16T06:00:54;13.70;99.90
20728;DHT22;10525;50.154;8.198;2022-10-16T06:03:21;13.70;99.90
20728;DHT22;10525;50.154;8.198;2022-10-16T06:05:47;13.70;99.90
20728;DHT22;10525;50.154;8.198;2022-10-16T06:08:14;13.70;99.90
20728;DHT22;10525;50.154;8.198;2022-10-16T06:10:41;13.70;99.90
20728;DHT22;10525;50.154;8.198;2022-10-16T06:13:10;13.70;99.90
20728;DHT22;10525;50.154;8.198;2022-10-16T06:15:37;13.70;99.90
20728;DHT22;10525;50.154;8.198;2022-10-16T06:18:04;13.70;99.90
20728;DHT22;10525;50.154;8.198;2022-10-16T06:20:31;13.80;99.90
20728;DHT22;10525;50.154;8.198;2022-10-16T06:22:58;13.80;99.90
20728;DHT22;10525;50.154;8.198;2022-10-16T06:25:24;13.80;99.90
20728;DHT22;10525;50.154;8.198;2022-10-16T06:27:51;13.80;99.90
20728;DHT22;10525;50.154;8.198;2022-10-16T06:30:19;13.90;99.90
20728;DHT22;10525;50.154;8.198;2022-10-16T06:32:46;13.80;99.90
20728;DHT22;10525;50.154;8.198;2022-10-16T06:35:12;13.80;99.90
20728;DHT22;10525;50.154;8.198;2022-10-16T06:37:39;13.80;99.90
20728;DHT22;10525;50.154;8.198;2022-10-16T06:40:07;13.80;99.90
20728;DHT22;10525;50.154;8.198;2022-10-16T06:42:33;13.90;99.90
20728;DHT22;10525;50.154;8.198;2022-10-16T06:45:00;13.80;99.90
20728;DHT22;10525;50.154;8.198;2022-10-16T06:47:28;13.80;99.90
20728;DHT22;10525;50.154;8.198;2022-10-16T06:49:55;13.90;99.90
20728;DHT22;10525;50.154;8.198;2022-10-16T06:52:22;13.90;99.90
20728;DHT22;10525;50.154;8.198;2022-10-16T06:54:49;13.90;99.90
20728;DHT22;10525;50.154;8.198;2022-10-16T06:57:16;13.90;99.90
20728;DHT22;10525;50.154;8.198;2022-10-16T06:59:42;13.90;99.90
20728;DHT22;10525;50.154;8.198;2022-10-16T07:02:10;14.00;99.90
20728;DHT22;10525;50.154;8.198;2022-10-16T07:04:38;13.90;99.90
20728;DHT22;10525;50.154;8.198;2022-10-16T07:07:05;14.00;99.90
20728;DHT22;10525;50.154;8.198;2022-10-16T07:09:32;14.00;99.90
20728;DHT22;10525;50.154;8.198;2022-10-16T07:11:58;14.00;99.90
20728;DHT22;10525;50.154;8.198;2022-10-16T07:14:25;14.00;99.90
20728;DHT22;10525;50.154;8.198;2022-10-16T07:16:52;14.00;99.90
20728;DHT22;10525;50.154;8.198;2022-10-16T07:19:18;14.00;99.90
20728;DHT22;10525;50.154;8.198;2022-10-16T07:21:46;14.00;99.90
20728;DHT22;10525;50.154;8.198;2022-10-16T07:24:15;14.00;99.90
20728;DHT22;10525;50.154;8.198;2022-10-16T07:26:45;14.00;99.90
20728;DHT22;10525;50.154;8.198;2022-10-16T07:29:13;14.00;99.90
20728;DHT22;10525;50.154;8.198;2022-10-16T07:31:40;14.00;99.90
20728;DHT22;10525;50.154;8.198;2022-10-16T07:34:07;14.00;99.90
20728;DHT22;10525;50.154;8.198;2022-10-16T07:36:34;14.00;99.90
20728;DHT22;10525;50.154;8.198;2022-10-16T07:39:02;14.10;99.90
20728;DHT22;10525;50.154;8.198;2022-10-16T07:41:30;14.00;99.90
20728;DHT22;10525;50.154;8.198;2022-10-16T07:43:58;14.10;99.90
20728;DHT22;10525;50.154;8.198;2022-10-16T07:46:26;14.10;99.90
20728;DHT22;10525;50.154;8.198;2022-10-16T07:48:53;14.10;99.90
20728;DHT22;10525;50.154;8.198;2022-10-16T07:51:21;14.10;99.90
20728;DHT22;10525;50.154;8.198;2022-10-16T07:53:48;14.10;99.90
20728;DHT22;10525;50.154;8.198;2022-10-16T07:56:17;14.10;99.90
20728;DHT22;10525;50.154;8.198;2022-10-16T07:58:44;14.20;99.90
20728;DHT22;10525;50.154;8.198;2022-10-16T08:01:12;14.30;99.90
20728;DHT22;10525;50.154;8.198;2022-10-16T08:03:42;14.30;99.90
20728;DHT22;10525;50.154;8.198;2022-10-16T08:06:09;14.30;99.90
20728;DHT22;10525;50.154;8.198;2022-10-16T08:08:35;14.30;99.90
20728;DHT22;10525;50.154;8.198;2022-10-16T08:11:02;14.30;99.90
20728;DHT22;10525;50.154;8.198;2022-10-16T08:13:30;14.40;99.90
20728;DHT22;10525;50.154;8.198;2022-10-16T08:15:57;14.40;99.90
20728;DHT22;10525;50.154;8.198;2022-10-16T08:18:24;14.40;99.90
20728;DHT22;10525;50.154;8.198;2022-10-16T08:20:55;14.50;99.90
20728;DHT22;10525;50.154;8.198;2022-10-16T08:23:22;14.50;99.90
20728;DHT22;10525;50.154;8.198;2022-10-16T08:25:51;14.60;99.90
20728;DHT22;10525;50.154;8.198;2022-10-16T08:28:18;14.60;99.90
20728;DHT22;10525;50.154;8.198;2022-10-16T08:30:46;14.80;99.90
20728;DHT22;10525;50.154;8.198;2022-10-16T08:33:13;15.00;99.90
20728;DHT22;10525;50.154;8.198;2022-10-16T08:35:39;15.00;99.90
20728;DHT22;10525;50.154;8.198;2022-10-16T08:38:06;15.10;99.90
20728;DHT22;10525;50.154;8.198;2022-10-16T08:40:36;15.10;99.90
20728;DHT22;10525;50.154;8.198;2022-10-16T08:46:20;15.00;99.90
20728;DHT22;10525;50.154;8.198;2022-10-16T08:48:50;15.00;99.90
20728;DHT22;10525;50.154;8.198;2022-10-16T08:51:20;15.00;99.90
20728;DHT22;10525;50.154;8.198;2022-10-16T08:53:52;15.10;99.90
20728;DHT22;10525;50.154;8.198;2022-10-16T08:56:20;15.20;99.90
20728;DHT22;10525;50.154;8.198;2022-10-16T08:58:48;15.20;99.90
20728;DHT22;10525;50.154;8.198;2022-10-16T09:01:17;15.30;99.90
20728;DHT22;10525;50.154;8.198;2022-10-16T09:03:58;15.40;99.90
20728;DHT22;10525;50.154;8.198;2022-10-16T09:06:39;15.40;99.90
20728;DHT22;10525;50.154;8.198;2022-10-16T09:09:29;15.40;99.90
20728;DHT22;10525;50.154;8.198;2022-10-16T09:12:04;15.40;99.90
20728;DHT22;10525;50.154;8.198;2022-10-16T09:14:49;15.30;99.90
20728;DHT22;10525;50.154;8.198;2022-10-16T09:17:26;15.40;99.90
20728;DHT22;10525;50.154;8.198;2022-10-16T09:20:02;15.40;99.90
20728;DHT22;10525;50.154;8.198;2022-10-16T09:22:31;15.40;99.90
20728;DHT22;10525;50.154;8.198;2022-10-16T09:25:00;15.50;99.90
20728;DHT22;10525;50.154;8.198;2022-10-16T09:27:36;15.50;99.90
20728;DHT22;10525;50.154;8.198;2022-10-16T09:30:11;15.60;99.90
20728;DHT22;10525;50.154;8.198;2022-10-16T09:32:40;15.90;99.90
20728;DHT22;10525;50.154;8.198;2022-10-16T09:35:13;16.00;99.90
20728;DHT22;10525;50.154;8.198;2022-10-16T09:37:41;16.20;99.90
20728;DHT22;10525;50.154;8.198;2022-10-16T09:40:13;16.40;99.90
20728;DHT22;10525;50.154;8.198;2022-10-16T09:42:40;16.30;99.90
20728;DHT22;10525;50.154;8.198;2022-10-16T09:45:21;16.20;99.90
20728;DHT22;10525;50.154;8.198;2022-10-16T09:47:49;16.30;99.90
20728;DHT22;10525;50.154;8.198;2022-10-16T09:50:22;16.60;99.90
20728;DHT22;10525;50.154;8.198;2022-10-16T09:52:49;16.80;99.90
20728;DHT22;10525;50.154;8.198;2022-10-16T09:55:17;16.80;99.90
20728;DHT22;10525;50.154;8.198;2022-10-16T09:57:50;16.80;99.90
20728;DHT22;10525;50.154;8.198;2022-10-16T10:00:18;17.00;99.90
20728;DHT22;10525;50.154;8.198;2022-10-16T10:02:45;17.20;99.90
20728;DHT22;10525;50.154;8.198;2022-10-16T10:05:21;17.20;99.90
20728;DHT22;10525;50.154;8.198;2022-10-16T10:07:55;17.30;99.90
20728;DHT22;10525;50.154;8.198;2022-10-16T10:10:24;17.30;99.90
20728;DHT22;10525;50.154;8.198;2022-10-16T10:12:51;17.50;99.90
20728;DHT22;10525;50.154;8.198;2022-10-16T10:15:18;17.90;99.90
20728;DHT22;10525;50.154;8.198;2022-10-16T10:17:48;17.70;99.90
20728;DHT22;10525;50.154;8.198;2022-10-16T10:20:24;17.80;99.90
20728;DHT22;10525;50.154;8.198;2022-10-16T10:22:51;17.90;99.90
20728;DHT22;10525;50.154;8.198;2022-10-16T10:25:43;18.20;99.90
20728;DHT22;10525;50.154;8.198;2022-10-16T10:28:35;18.00;99.90
20728;DHT22;10525;50.154;8.198;2022-10-16T10:31:09;18.00;99.90
20728;DHT22;10525;50.154;8.198;2022-10-16T10:33:43;18.30;99.90
20728;DHT22;10525;50.154;8.198;2022-10-16T10:36:28;18.50;99.90
20728;DHT22;10525;50.154;8.198;2022-10-16T10:38:58;18.50;99.90
20728;DHT22;10525;50.154;8.198;2022-10-16T10:44:26;18.60;99.90
20728;DHT22;10525;50.154;8.198;2022-10-16T10:46:57;18.70;99.90
20728;DHT22;10525;50.154;8.198;2022-10-16T10:49:37;18.60;99.90
20728;DHT22;10525;50.154;8.198;2022-10-16T10:52:19;18.60;99.90
20728;DHT22;10525;50.154;8.198;2022-10-16T10:54:53;18.40;99.90
20728;DHT22;10525;50.154;8.198;2022-10-16T10:57:28;18.60;99.90
20728;DHT22;10525;50.154;8.198;2022-10-16T11:00:04;18.60;99.90
20728;DHT22;10525;50.154;8.198;2022-10-16T11:02:38;18.40;99.90
20728;DHT22;10525;50.154;8.198;2022-10-16T11:05:35;18.70;99.90
20728;DHT22;10525;50.154;8.198;2022-10-16T11:08:10;18.60;99.90
20728;DHT22;10525;50.154;8.198;2022-10-16T11:10:44;18.80;99.90
20728;DHT22;10525;50.154;8.198;2022-10-16T11:13:20;18.90;99.90
20728;DHT22;10525;50.154;8.198;2022-10-16T11:15:50;18.90;99.90
20728;DHT22;10525;50.154;8.198;2022-10-16T11:18:21;18.90;99.90
20728;DHT22;10525;50.154;8.198;2022-10-16T11:20:53;19.00;99.90
20728;DHT22;10525;50.154;8.198;2022-10-16T11:23:25;18.90;99.90
20728;DHT22;10525;50.154;8.198;2022-10-16T11:25:57;18.90;99.90
20728;DHT22;10525;50.154;8.198;2022-10-16T11:28:29;18.90;99.90
20728;DHT22;10525;50.154;8.198;2022-10-16T11:31:02;18.60;99.90
20728;DHT22;10525;50.154;8.198;2022-10-16T11:33:34;18.60;99.90
20728;DHT22;10525;50.154;8.198;2022-10-16T11:36:08;18.60;99.90
20728;DHT22;10525;50.154;8.198;2022-10-16T11:38:43;18.40;99.90
20728;DHT22;10525;50.154;8.198;2022-10-16T11:41:22;18.10;99.90
20728;DHT22;10525;50.154;8.198;2022-10-16T11:44:03;17.80;99.90
20728;DHT22;10525;50.154;8.198;2022-10-16T11:46:34;17.60;99.90
20728;DHT22;10525;50.154;8.198;2022-10-16T11:49:08;17.40;99.90
20728;DHT22;10525;50.154;8.198;2022-10-16T11:51:39;17.60;99.90
20728;DHT22;10525;50.154;8.198;2022-10-16T11:54:16;17.80;99.90
20728;DHT22;10525;50.154;8.198;2022-10-16T11:56:48;18.00;99.90
20728;DHT22;10525;50.154;8.198;2022-10-16T11:59:22;18.10;99.90
20728;DHT22;10525;50.154;8.198;2022-10-16T12:01:54;18.30;99.90
20728;DHT22;10525;50.154;8.198;2022-10-16T12:04:28;18.40;99.90
20728;DHT22;10525;50.154;8.198;2022-10-16T12:07:02;18.30;99.90
20728;DHT22;10525;50.154;8.198;2022-10-16T12:09:33;18.50;99.90
20728;DHT22;10525;50.154;8.198;2022-10-16T12:12:03;18.60;99.90
20728;DHT22;10525;50.154;8.198;2022-10-16T12:14:35;18.50;99.90
20728;DHT22;10525;50.154;8.198;2022-10-16T12:17:04;18.40;99.90
20728;DHT22;10525;50.154;8.198;2022-10-16T12:19:57;18.50;99.90
20728;DHT22;10525;50.154;8.198;2022-10-16T12:22:28;18.40;99.90
20728;DHT22;10525;50.154;8.198;2022-10-16T12:24:57;18.50;99.90
20728;DHT22;10525;50.154;8.198;2022-10-16T12:27:27;18.40;99.90
20728;DHT22;10525;50.154;8.198;2022-10-16T12:29:56;18.50;99.90
20728;DHT22;10525;50.154;8.198;2022-10-16T12:32:28;18.60;99.90
20728;DHT22;10525;50.154;8.198;2022-10-16T12:34:55;18.60;99.90
20728;DHT22;10525;50.154;8.198;2022-10-16T12:37:24;18.60;99.90
20728;DHT22;10525;50.154;8.198;2022-10-16T12:39:52;18.60;99.90
20728;DHT22;10525;50.154;8.198;2022-10-16T12:42:30;18.40;99.90
20728;DHT22;10525;50.154;8.198;2022-10-16T12:44:57;18.40;99.90
20728;DHT22;10525;50.154;8.198;2022-10-16T12:47:36;18.40;99.90
20728;DHT22;10525;50.154;8.198;2022-10-16T12:52:47;18.60;99.90
20728;DHT22;10525;50.154;8.198;2022-10-16T12:55:16;18.40;99.90
20728;DHT22;10525;50.154;8.198;2022-10-16T12:57:57;18.40;99.90
20728;DHT22;10525;50.154;8.198;2022-10-16T13:00:33;18.40;99.90
20728;DHT22;10525;50.154;8.198;2022-10-16T13:03:28;18.60;99.90
20728;DHT22;10525;50.154;8.198;2022-10-16T13:06:11;18.80;99.90
20728;DHT22;10525;50.154;8.198;2022-10-16T13:08:54;18.90;99.90
20728;DHT22;10525;50.154;8.198;2022-10-16T13:11:41;18.90;99.90
20728;DHT22;10525;50.154;8.198;2022-10-16T13:14:35;18.70;99.90
20728;DHT22;10525;50.154;8.198;2022-10-16T13:17:11;18.60;99.90
20728;DHT22;10525;50.154;8.198;2022-10-16T13:19:44;18.40;99.90
20728;DHT22;10525;50.154;8.198;2022-10-16T13:22:19;18.30;99.90
20728;DHT22;10525;50.154;8.198;2022-10-16T13:25:02;18.10;99.90
20728;DHT22;10525;50.154;8.198;2022-10-16T13:27:39;18.10;99.90
20728;DHT22;10525;50.154;8.198;2022-10-16T13:30:15;18.10;99.90
20728;DHT22;10525;50.154;8.198;2022-10-16T13:32:45;18.10;99.90
20728;DHT22;10525;50.154;8.198;2022-10-16T13:35:21;18.10;99.90
20728;DHT22;10525;50.154;8.198;2022-10-16T13:37:48;18.10;99.90
20728;DHT22;10525;50.154;8.198;2022-10-16T13:40:20;18.20;99.90
20728;DHT22;10525;50.154;8.198;2022-10-16T13:42:47;18.30;99.90
20728;DHT22;10525;50.154;8.198;2022-10-16T13:45:19;18.30;99.90
20728;DHT22;10525;50.154;8.198;2022-10-16T13:47:47;18.30;99.90
20728;DHT22;10525;50.154;8.198;2022-10-16T13:50:15;18.20;99.90
20728;DHT22;10525;50.154;8.198;2022-10-16T13:52:43;18.30;99.90
20728;DHT22;10525;50.154;8.198;2022-10-16T13:55:11;18.30;99.90
20728;DHT22;10525;50.154;8.198;2022-10-16T13:57:38;18.30;99.90
20728;DHT22;10525;50.154;8.198;2022-10-16T14:00:21;18.40;99.90
20728;DHT22;10525;50.154;8.198;2022-10-16T14:02:53;18.60;99.90
20728;DHT22;10525;50.154;8.198;2022-10-16T14:05:21;18.60;99.90
20728;DHT22;10525;50.154;8.198;2022-10-16T14:07:49;18.60;99.90
20728;DHT22;10525;50.154;8.198;2022-10-16T14:10:25;18.50;99.90
20728;DHT22;10525;50.154;8.198;2022-10-16T14:12:57;18.50;99.90
20728;DHT22;10525;50.154;8.198;2022-10-16T14:15:26;18.60;99.90
20728;DHT22;10525;50.154;8.198;2022-10-16T14:17:53;18.60;99.90
20728;DHT22;10525;50.154;8.198;2022-10-16T14:20:24;18.70;99.90
20728;DHT22;10525;50.154;8.198;2022-10-16T14:22:58;18.80;99.90
20728;DHT22;10525;50.154;8.198;2022-10-16T14:25:29;18.80;99.90
20728;DHT22;10525;50.154;8.198;2022-10-16T14:27:57;18.90;99.90
20728;DHT22;10525;50.154;8.198;2022-10-16T14:30:26;18.70;99.90
20728;DHT22;10525;50.154;8.198;2022-10-16T14:32:55;18.60;99.90
20728;DHT22;10525;50.154;8.198;2022-10-16T14:35:28;18.60;99.90
20728;DHT22;10525;50.154;8.198;2022-10-16T14:37:56;18.40;99.90
20728;DHT22;10525;50.154;8.198;2022-10-16T14:40:26;18.30;99.90
20728;DHT22;10525;50.154;8.198;2022-10-16T14:42:54;18.20;99.90
20728;DHT22;10525;50.154;8.198;2022-10-16T14:45:22;18.40;99.90
20728;DHT22;10525;50.154;8.198;2022-10-16T14:47:54;18.50;99.90
20728;DHT22;10525;50.154;8.198;2022-10-16T14:50:22;18.50;99.90
20728;DHT22;10525;50.154;8.198;2022-10-16T14:52:48;18.40;99.90
20728;DHT22;10525;50.154;8.198;2022-10-16T14:55:16;18.30;99.90
20728;DHT22;10525;50.154;8.198;2022-10-16T14:57:44;18.20;99.90
20728;DHT22;10525;50.154;8.198;2022-10-16T15:00:19;18.00;99.90
20728;DHT22;10525;50.154;8.198;2022-10-16T15:02:47;17.80;99.90
20728;DHT22;10525;50.154;8.198;2022-10-16T15:05:18;17.70;99.90
20728;DHT22;10525;50.154;8.198;2022-10-16T15:07:46;17.50;99.90
20728;DHT22;10525;50.154;8.198;2022-10-16T15:10:13;17.40;99.90
20728;DHT22;10525;50.154;8.198;2022-10-16T15:12:40;17.30;99.90
20728;DHT22;10525;50.154;8.198;2022-10-16T15:15:24;17.30;99.90
20728;DHT22;10525;50.154;8.198;2022-10-16T15:17:52;17.40;99.90
20728;DHT22;10525;50.154;8.198;2022-10-16T15:20:23;17.40;99.90
20728;DHT22;10525;50.154;8.198;2022-10-16T15:22:50;17.40;99.90
20728;DHT22;10525;50.154;8.198;2022-10-16T15:25:31;17.50;99.90
20728;DHT22;10525;50.154;8.198;2022-10-16T15:27:58;17.50;99.90
20728;DHT22;10525;50.154;8.198;2022-10-16T15:30:26;17.50;99.90
20728;DHT22;10525;50.154;8.198;2022-10-16T15:32:53;17.50;99.90
20728;DHT22;10525;50.154;8.198;2022-10-16T15:35:23;17.50;99.90
20728;DHT22;10525;50.154;8.198;2022-10-16T15:37:50;17.40;99.90
20728;DHT22;10525;50.154;8.198;2022-10-16T15:40:17;17.40;99.90
20728;DHT22;10525;50.154;8.198;2022-10-16T15:42:44;17.30;99.90
20728;DHT22;10525;50.154;8.198;2022-10-16T15:45:12;17.30;99.90
20728;DHT22;10525;50.154;8.198;2022-10-16T15:47:41;17.20;99.90
20728;DHT22;10525;50.154;8.198;2022-10-16T15:50:09;17.20;99.90
20728;DHT22;10525;50.154;8.198;2022-10-16T15:52:38;17.10;99.90
20728;DHT22;10525;50.154;8.198;2022-10-16T15:55:08;17.10;99.90
20728;DHT22;10525;50.154;8.198;2022-10-16T15:57:35;17.00;99.90